Time;durP1;ratioP1;P1;durP2;ratioP2;P2;SDS_P1;SDS_P2;PMS_P1;PMS_P2;Temp;Humidity;BMP_temperature;BMP_pressure;BME280_temperature;BME280_humidity;BME280_pressure;Samples;Min_cycle;Max_cycle;Signal;HPM_P1;HPM_P2
2022/08/22 00:00:22;;;;;;;10.95;5.40;;;;;;;16.18;88.49;101528.78;5046578;28;20060;-78
2022/08/22 00:03:02;;;;;;;9.18;4.72;;;;;;;16.21;88.28;101525.84;5035655;28;20023;-77
2022/08/22 00:06:04;;;;;;;11.40;5.25;;;;;;;16.25;88.39;101531.72;5047809;28;20029;-74
2022/08/22 00:08:59;;;;;;;8.40;4.68;;;;;;;16.23;88.00;101525.72;5047550;28;20033;-74
2022/08/22 00:11:39;;;;;;;7.50;4.32;;;;;;;16.23;88.61;101526.56;5048271;28;20025;-76
2022/08/22 00:14:17;;;;;;;9.55;4.68;;;;;;;16.21;89.01;101531.16;5048209;28;20064;-75
2022/08/22 00:16:42;;;;;;;9.32;4.78;;;;;;;16.19;89.22;101530.44;5048583;28;20045;-77
2022/08/22 00:19:07;;;;;;;9.15;4.50;;;;;;;16.16;89.80;101532.53;5047223;28;20037;-77
2022/08/22 00:21:41;;;;;;;9.57;4.53;;;;;;;16.19;89.53;101529.63;5048057;28;20021;-77
2022/08/22 00:24:22;;;;;;;10.20;4.97;;;;;;;16.19;90.16;101530.44;5045521;28;20073;-77
2022/08/22 00:27:09;;;;;;;8.27;4.88;;;;;;;16.21;89.90;101520.53;5046337;28;20037;-77
2022/08/22 00:29:50;;;;;;;8.13;4.95;;;;;;;16.15;90.32;101528.19;5048101;28;20511;-76
2022/08/22 00:32:28;;;;;;;6.75;4.22;;;;;;;16.13;90.38;101520.38;5047075;28;20033;-76
2022/08/22 00:34:59;;;;;;;7.68;4.25;;;;;;;16.14;90.72;101527.34;5048033;28;20032;-77
2022/08/22 00:37:31;;;;;;;9.57;4.32;;;;;;;16.12;90.33;101529.31;5047922;28;20060;-77
2022/08/22 00:40:05;;;;;;;12.10;4.82;;;;;;;16.12;90.54;101524.00;5047267;28;20457;-76
2022/08/22 00:43:01;;;;;;;11.50;4.25;;;;;;;16.13;90.16;101519.53;5046991;28;20044;-76
2022/08/22 00:45:39;;;;;;;13.55;4.70;;;;;;;16.15;90.15;101529.03;5049560;28;20029;-77
2022/08/22 00:48:10;;;;;;;6.55;4.07;;;;;;;16.10;90.77;101528.59;5049830;28;20033;-77
2022/08/22 00:51:23;;;;;;;9.40;4.30;;;;;;;16.14;89.86;101524.69;5048640;28;20108;-77
2022/08/22 00:53:58;;;;;;;8.38;4.32;;;;;;;16.17;89.92;101531.56;5049728;28;20052;-77
2022/08/22 00:56:51;;;;;;;7.88;4.47;;;;;;;16.16;90.12;101527.22;5048656;28;20027;-77
2022/08/22 00:59:16;;;;;;;;;;;;;;;16.28;87.09;101534.13;5048191;28;20028;-76
2022/08/22 01:02:07;;;;;;;13.03;7.63;;;;;;;16.07;90.48;101531.53;5048501;28;19919;-77
2022/08/22 01:05:01;;;;;;;9.52;5.05;;;;;;;16.12;90.25;101533.78;5048881;28;20029;-78
2022/08/22 01:07:54;;;;;;;9.25;4.95;;;;;;;16.12;90.10;101526.66;5048166;28;20029;-76
2022/08/22 01:10:31;;;;;;;;;;;;;;;16.23;87.56;101526.56;5049473;28;20091;-76
2022/08/22 01:13:34;;;;;;;11.25;4.65;;;;;;;16.13;88.99;101516.88;5048806;28;19915;-77
2022/08/22 01:16:34;;;;;;;10.60;5.00;;;;;;;16.06;88.87;101513.91;5044815;28;20025;-77
2022/08/22 01:19:26;;;;;;;10.02;5.68;;;;;;;16.02;89.09;101528.44;5048459;28;20090;-77
2022/08/22 01:22:06;;;;;;;13.18;5.15;;;;;;;15.99;89.64;101523.34;5047973;28;20108;-76
2022/08/22 01:27:49;;;;;;;14.05;6.90;;;;;;;16.04;88.81;101515.88;5047349;28;20082;-76
2022/08/22 01:30:38;;;;;;;16.55;7.57;;;;;;;16.08;88.48;101525.25;5046369;28;20064;-76
2022/08/22 01:33:23;;;;;;;15.57;7.43;;;;;;;16.10;87.64;101525.94;5048545;28;20023;-77
2022/08/22 01:36:25;;;;;;;16.35;7.68;;;;;;;16.17;87.55;101520.94;5051521;28;20055;-76
2022/08/22 01:39:39;;;;;;;14.30;7.63;;;;;;;16.20;86.73;101525.97;5032757;28;20040;-76
2022/08/22 01:42:25;;;;;;;12.35;7.80;;;;;;;16.18;87.02;101520.81;5019897;28;20508;-76
2022/08/22 01:45:23;;;;;;;14.98;8.15;;;;;;;16.24;86.40;101516.78;5054934;28;20036;-76
2022/08/22 01:47:56;;;;;;;15.73;8.48;;;;;;;16.22;86.49;101521.38;5071600;28;20506;-74
2022/08/22 01:50:38;;;;;;;13.25;7.50;;;;;;;16.22;87.07;101513.41;5074310;28;20029;-76
2022/08/22 01:53:23;;;;;;;12.57;7.90;;;;;;;16.24;87.38;101514.97;5070297;28;20079;-74
2022/08/22 01:56:12;;;;;;;14.75;7.55;;;;;;;16.26;87.07;101512.16;5069813;28;20025;-74
2022/08/22 01:58:52;;;;;;;13.50;8.02;;;;;;;16.21;87.48;101517.88;5071006;28;20398;-73
2022/08/22 02:01:36;;;;;;;15.25;8.65;;;;;;;16.22;87.57;101516.91;5053743;28;20076;-74
2022/08/22 02:04:02;;;;;;;14.23;8.15;;;;;;;16.27;85.55;101512.03;5070031;28;20028;-76
2022/08/22 02:06:41;;;;;;;13.52;8.00;;;;;;;16.33;85.53;101517.78;5073567;28;20037;-76
2022/08/22 02:09:31;;;;;;;16.08;8.63;;;;;;;16.33;85.97;101505.34;5071495;28;20032;-76
2022/08/22 02:12:19;;;;;;;16.95;8.63;;;;;;;16.36;85.83;101514.84;5071607;28;20013;-76
2022/08/22 02:15:43;;;;;;;12.45;7.75;;;;;;;16.40;86.32;101517.09;5072654;28;20021;-77
2022/08/22 02:18:19;;;;;;;14.90;8.52;;;;;;;16.37;85.49;101509.41;5005262;28;20048;-75
2022/08/22 02:20:47;;;;;;;16.23;8.68;;;;;;;16.38;85.49;101516.41;5050582;28;20036;-75
2022/08/22 02:23:37;;;;;;;15.15;8.57;;;;;;;16.38;85.85;101503.13;5067173;28;20032;-76
2022/08/22 02:26:09;;;;;;;14.57;8.07;;;;;;;16.38;86.32;101507.59;5066985;28;20021;-76
2022/08/22 02:29:00;;;;;;;13.13;7.80;;;;;;;16.39;86.38;101507.44;5031930;28;20648;-77
2022/08/22 02:31:25;;;;;;;12.95;7.45;;;;;;;16.36;86.43;101509.53;5030867;28;20032;-76
2022/08/22 02:33:55;;;;;;;14.82;8.20;;;;;;;16.27;86.57;101505.88;5031171;28;20021;-76
2022/08/22 02:36:32;;;;;;;12.20;7.90;;;;;;;16.33;86.57;101493.88;5032878;28;20022;-76
2022/08/22 02:39:25;;;;;;;12.48;8.23;;;;;;;16.32;86.52;101503.66;5049380;28;20021;-77
2022/08/22 02:42:10;;;;;;;14.05;8.32;;;;;;;16.27;86.74;101504.06;5044630;28;20009;-76
2022/08/22 02:44:41;;;;;;;12.77;7.82;;;;;;;16.21;87.18;101507.25;5030482;28;20804;-77
2022/08/22 02:47:35;;;;;;;13.05;8.55;;;;;;;16.28;86.96;101511.06;5037097;28;20106;-77
2022/08/22 02:50:17;;;;;;;13.27;8.23;;;;;;;16.19;87.77;101495.94;5048351;28;20984;-76
2022/08/22 02:53:03;;;;;;;14.30;8.45;;;;;;;16.20;87.26;101502.94;5049649;28;20024;-76
2022/08/22 02:55:47;;;;;;;17.27;8.45;;;;;;;16.21;87.57;101506.41;5050442;28;20078;-77
2022/08/22 02:58:22;;;;;;;16.35;8.57;;;;;;;16.15;87.67;101497.19;5048472;28;20794;-78
2022/08/22 03:01:09;;;;;;;15.77;9.20;;;;;;;16.10;87.99;101496.75;5050440;28;20124;-77
2022/08/22 03:03:41;;;;;;;17.45;9.32;;;;;;;16.12;88.54;101494.78;5050292;28;20198;-77
2022/08/22 03:06:32;;;;;;;14.85;8.98;;;;;;;16.16;87.92;101501.50;5049840;28;20040;-76
2022/08/22 03:09:24;;;;;;;14.07;8.65;;;;;;;16.14;88.25;101506.13;5030159;28;20033;-77
2022/08/22 03:12:05;;;;;;;13.60;9.77;;;;;;;16.08;88.56;101504.00;5041402;28;20024;-77
2022/08/22 03:14:40;;;;;;;14.40;9.00;;;;;;;16.06;88.39;101497.97;5048168;28;20487;-76
2022/08/22 03:17:13;;;;;;;16.10;9.75;;;;;;;15.98;89.21;101500.44;5048597;28;20029;-77
2022/08/22 03:20:04;;;;;;;15.30;9.23;;;;;;;15.93;89.60;101498.19;5047460;28;20040;-78
2022/08/22 03:22:42;;;;;;;20.05;9.85;;;;;;;15.96;89.08;101494.41;5048407;28;20029;-77
2022/08/22 03:25:21;;;;;;;15.38;10.20;;;;;;;15.93;89.38;101486.72;5048840;28;20024;-76
2022/08/22 03:27:59;;;;;;;14.63;10.10;;;;;;;15.93;89.39;101482.25;5046814;28;20044;-75
2022/08/22 03:30:42;;;;;;;12.98;9.55;;;;;;;15.93;89.62;101481.41;5049151;28;20032;-78
2022/08/22 03:33:21;;;;;;;17.52;9.63;;;;;;;15.86;89.08;101483.75;5047132;28;20033;-77
2022/08/22 03:35:47;;;;;;;16.05;9.75;;;;;;;15.79;88.88;101484.44;5048561;28;20027;-77
2022/08/22 03:38:22;;;;;;;12.68;10.00;;;;;;;15.74;89.54;101484.81;5048349;28;20033;-75
2022/08/22 03:41:15;;;;;;;15.35;9.77;;;;;;;15.70;89.64;101479.91;5049182;28;20029;-75
2022/08/22 03:44:10;;;;;;;15.93;10.15;;;;;;;15.72;89.59;101478.81;5048072;28;20052;-77
2022/08/22 03:46:42;;;;;;;13.25;10.13;;;;;;;15.59;89.97;101468.38;5048596;28;20103;-75
2022/08/22 03:49:32;;;;;;;14.07;10.38;;;;;;;15.62;90.22;101468.16;5047065;28;20025;-75
2022/08/22 03:52:17;;;;;;;14.85;11.02;;;;;;;15.52;90.65;101466.34;5044476;28;20028;-75
2022/08/22 03:55:24;;;;;;;15.43;9.95;;;;;;;15.57;89.92;101469.44;5049596;28;20090;-75
2022/08/22 03:57:49;;;;;;;19.00;9.85;;;;;;;15.48;90.26;101460.47;5048172;28;20067;-75
2022/08/22 04:00:24;;;;;;;14.20;9.70;;;;;;;15.44;90.30;101469.66;5047353;28;20037;-75
2022/08/22 04:03:04;;;;;;;16.08;10.13;;;;;;;15.43;90.44;101461.84;5049297;28;20079;-77
2022/08/22 04:05:38;;;;;;;14.82;9.48;;;;;;;15.32;90.85;101465.41;5047865;28;20078;-77
2022/08/22 04:08:32;;;;;;;13.95;9.90;;;;;;;15.34;90.07;101460.81;5030536;28;20087;-77
2022/08/22 04:11:17;;;;;;;12.07;9.52;;;;;;;15.34;90.01;101469.59;5027277;28;20025;-77
2022/08/22 04:14:05;;;;;;;14.65;9.73;;;;;;;15.28;90.37;101474.59;5028762;28;20025;-77
2022/08/22 04:17:30;;;;;;;13.65;9.98;;;;;;;15.33;89.69;101477.69;5034781;28;20024;-77
2022/08/22 04:20:09;;;;;;;14.35;10.70;;;;;;;15.23;90.49;101480.28;4985954;28;20096;-76
2022/08/22 04:22:54;;;;;;;14.57;10.27;;;;;;;15.17;91.24;101488.72;5012388;28;20033;-78
2022/08/22 04:25:32;;;;;;;11.82;10.05;;;;;;;15.22;91.44;101491.00;5040139;28;20045;-78
2022/08/22 04:28:08;;;;;;;12.02;9.52;;;;;;;15.14;91.46;101486.31;5047277;28;20475;-77
2022/08/22 04:30:39;;;;;;;14.57;10.25;;;;;;;15.16;91.83;101486.19;5048338;28;20383;-78
2022/08/22 04:33:11;;;;;;;14.48;10.15;;;;;;;15.18;92.29;101489.56;5079866;28;20024;-77
2022/08/22 04:35:45;;;;;;;15.57;10.38;;;;;;;15.14;92.26;101488.97;5080240;28;20031;-77
2022/08/22 04:38:26;;;;;;;14.73;10.25;;;;;;;15.15;92.31;101482.69;5046614;28;20561;-77
2022/08/22 04:41:04;;;;;;;13.05;10.23;;;;;;;15.17;92.50;101487.88;5047614;28;20021;-78
2022/08/22 04:43:39;;;;;;;15.30;10.52;;;;;;;15.17;92.69;101487.88;5047597;28;20068;-78
2022/08/22 04:46:14;;;;;;;15.63;10.25;;;;;;;15.17;93.26;101485.22;5046218;28;20041;-77
2022/08/22 04:49:05;;;;;;;15.38;10.07;;;;;;;15.22;93.17;101486.53;5047734;28;20043;-77
2022/08/22 04:51:37;;;;;;;12.88;9.40;;;;;;;15.21;93.32;101489.28;5045439;28;20497;-77
2022/08/22 04:54:30;;;;;;;12.98;10.05;;;;;;;15.22;93.25;101491.84;5046847;28;20025;-77
2022/08/22 04:57:20;;;;;;;14.85;10.13;;;;;;;15.28;93.47;101501.09;5047647;28;20478;-78
2022/08/22 04:59:46;;;;;;;15.10;10.48;;;;;;;15.24;94.01;101495.22;5046313;28;20020;-77
2022/08/22 05:02:19;;;;;;;15.05;10.20;;;;;;;15.32;94.00;101497.22;5047424;28;20485;-77
2022/08/22 05:04:50;;;;;;;16.77;10.88;;;;;;;15.38;94.25;101501.16;5047772;28;20064;-77
2022/08/22 05:07:21;;;;;;;15.02;10.38;;;;;;;15.42;94.39;101502.59;5044155;28;20021;-77
2022/08/22 05:10:11;;;;;;;13.90;10.10;;;;;;;15.48;93.83;101500.25;5050402;28;20028;-77
2022/08/22 05:12:42;;;;;;;15.57;10.57;;;;;;;15.50;94.37;101500.97;5051095;28;20033;-78
2022/08/22 05:15:12;;;;;;;16.83;12.32;;;;;;;15.50;93.33;101502.78;5051750;28;20020;-78
2022/08/22 05:17:42;;;;;;;19.70;12.20;;;;;;;15.54;93.30;101501.53;5052370;28;20039;-76
2022/08/22 05:20:12;;;;;;;17.80;12.43;;;;;;;15.49;93.40;101504.59;5051667;28;20061;-76
2022/08/22 05:22:45;;;;;;;16.48;12.18;;;;;;;15.55;92.99;101498.75;5048968;28;20183;-77
2022/08/22 05:25:17;;;;;;;17.20;11.93;;;;;;;15.57;92.95;101502.13;5048442;28;20155;-77
2022/08/22 05:27:49;;;;;;;17.95;12.02;;;;;;;15.66;92.91;101509.38;5052343;28;20029;-77
2022/08/22 05:30:23;;;;;;;17.97;11.80;;;;;;;15.71;92.31;101508.13;5039712;28;20025;-77
2022/08/22 05:32:53;;;;;;;18.95;11.85;;;;;;;15.79;91.91;101508.31;5052345;28;20286;-77
2022/08/22 05:35:31;;;;;;;16.63;11.57;;;;;;;15.82;93.46;101516.84;5051721;28;20024;-76
2022/08/22 05:37:57;;;;;;;18.38;11.85;;;;;;;15.88;92.54;101510.16;5050846;28;20534;-78
2022/08/22 05:40:28;;;;;;;25.02;11.45;;;;;;;15.93;92.64;101515.91;5049807;28;20090;-75
2022/08/22 05:42:59;;;;;;;14.57;11.32;;;;;;;15.99;92.58;101513.56;5048486;28;20130;-75
2022/08/22 05:45:26;;;;;;;17.73;11.55;;;;;;;16.05;92.56;101517.53;5050004;28;20131;-77
2022/08/22 05:48:10;;;;;;;17.38;11.40;;;;;;;16.09;92.25;101518.13;5050877;28;20100;-77
2022/08/22 05:51:14;;;;;;;20.70;12.20;;;;;;;16.09;91.88;101513.66;5049638;28;20077;-77
2022/08/22 05:53:46;;;;;;;18.02;11.63;;;;;;;16.05;91.91;101517.53;5040460;28;20076;-77
2022/08/22 05:56:21;;;;;;;18.88;11.80;;;;;;;16.07;91.56;101518.25;5047393;28;20032;-76
2022/08/22 05:58:58;;;;;;;20.23;11.75;;;;;;;16.12;91.36;101510.72;5050927;28;20039;-77
2022/08/22 06:01:51;;;;;;;22.77;11.55;;;;;;;16.15;90.89;101504.31;5049825;28;20033;-76
2022/08/22 06:04:38;;;;;;;18.80;11.65;;;;;;;16.14;90.96;101506.13;5048830;28;20033;-77
2022/08/22 06:07:08;;;;;;;20.13;11.50;;;;;;;16.21;90.25;101507.25;5050551;28;20025;-77
2022/08/22 06:09:47;;;;;;;23.85;11.82;;;;;;;16.24;90.69;101507.00;5050528;28;20475;-77
2022/08/22 06:12:30;;;;;;;17.50;11.80;;;;;;;16.33;90.44;101512.47;5049251;28;20479;-76
2022/08/22 06:15:06;;;;;;;20.73;11.63;;;;;;;16.37;90.07;101511.22;5050333;28;20027;-76
2022/08/22 06:17:36;;;;;;;20.83;11.23;;;;;;;16.43;89.71;101514.22;5049318;28;20581;-76
2022/08/22 06:20:05;;;;;;;21.38;11.45;;;;;;;16.51;88.96;101518.84;5050085;28;20433;-76
2022/08/22 06:22:37;;;;;;;19.38;11.30;;;;;;;16.53;89.16;101507.09;5048957;28;20025;-76
2022/08/22 06:25:16;;;;;;;18.80;11.45;;;;;;;16.61;89.19;101519.69;5049243;28;20439;-74
2022/08/22 06:27:44;;;;;;;16.10;11.27;;;;;;;16.65;88.58;101517.59;5051351;28;20021;-74
2022/08/22 06:30:13;;;;;;;17.85;11.88;;;;;;;16.75;88.65;101518.50;5048138;28;20509;-75
2022/08/22 06:32:44;;;;;;;18.20;11.55;;;;;;;16.76;87.82;101518.34;5050229;28;20028;-75
2022/08/22 06:35:26;;;;;;;21.10;11.90;;;;;;;16.77;87.72;101520.03;5050157;28;20028;-75
2022/08/22 06:37:58;;;;;;;29.20;12.30;;;;;;;16.82;87.05;101528.47;5049998;28;20041;-75
2022/08/22 06:40:26;;;;;;;24.02;13.00;;;;;;;16.88;87.60;101516.44;5050955;28;20041;-75
2022/08/22 06:42:54;;;;;;;18.92;12.38;;;;;;;17.04;87.62;101526.53;5050276;28;20041;-77
2022/08/22 06:45:30;;;;;;;21.63;11.70;;;;;;;17.09;86.82;101526.94;5050084;28;20394;-77
2022/08/22 06:48:11;;;;;;;21.02;12.68;;;;;;;17.10;86.26;101531.28;5070515;28;20075;-77
2022/08/22 06:50:40;;;;;;;18.83;12.68;;;;;;;17.15;85.94;101529.88;5045871;28;20013;-77
2022/08/22 06:53:10;;;;;;;17.65;12.15;;;;;;;17.28;86.29;101526.97;5043825;28;20825;-77
2022/08/22 06:55:39;;;;;;;17.27;12.02;;;;;;;17.42;86.30;101526.53;5073237;28;20037;-77
2022/08/22 06:58:14;;;;;;;19.23;12.13;;;;;;;17.53;85.76;101542.31;5048521;28;20021;-77
2022/08/22 07:00:42;;;;;;;19.45;12.73;;;;;;;17.57;86.16;101545.53;5046627;28;20079;-77
2022/08/22 07:03:36;;;;;;;21.60;13.00;;;;;;;17.65;85.72;101544.88;5048468;28;20039;-77
2022/08/22 07:06:02;;;;;;;18.90;12.48;;;;;;;17.67;84.78;101548.25;5046124;28;20020;-76
2022/08/22 07:08:30;;;;;;;21.90;13.95;;;;;;;17.67;85.35;101549.09;5047857;28;20024;-77
2022/08/22 07:11:02;;;;;;;17.10;13.02;;;;;;;17.70;85.96;101547.97;5046149;28;20043;-76
2022/08/22 07:13:29;;;;;;;18.85;13.88;;;;;;;17.75;86.00;101548.38;5048303;28;20052;-76
2022/08/22 07:15:58;;;;;;;19.02;14.02;;;;;;;17.80;85.86;101546.97;5045529;28;20035;-76
2022/08/22 07:18:28;;;;;;;19.88;14.80;;;;;;;17.84;85.44;101547.50;5048969;28;20032;-76
2022/08/22 07:20:58;;;;;;;22.33;16.00;;;;;;;17.83;84.71;101548.50;5048126;28;20627;-77
2022/08/22 07:23:44;;;;;;;21.75;14.35;;;;;;;17.93;84.77;101543.13;5048985;28;20036;-77
2022/08/22 07:26:38;;;;;;;19.63;14.18;;;;;;;17.97;84.41;101541.88;5048719;28;20079;-77
2022/08/22 07:29:33;;;;;;;19.30;13.60;;;;;;;18.06;84.32;101544.53;5049790;28;20033;-76
2022/08/22 07:32:13;;;;;;;19.60;13.57;;;;;;;18.12;83.85;101541.28;5049188;28;20051;-76
2022/08/22 07:35:00;;;;;;;20.23;14.30;;;;;;;18.12;83.19;101535.94;5049037;28;20124;-75
2022/08/22 07:37:29;;;;;;;19.52;14.25;;;;;;;18.24;82.71;101533.09;5049050;28;20445;-77
2022/08/22 07:40:15;;;;;;;16.38;13.25;;;;;;;18.48;82.04;101531.59;5048511;28;20491;-77
2022/08/22 07:42:50;;;;;;;22.05;14.60;;;;;;;19.02;80.30;101529.03;5049483;28;20139;-76
2022/08/22 07:45:37;;;;;;;22.80;14.02;;;;;;;19.29;78.13;101531.66;5048663;28;20021;-77
2022/08/22 07:48:25;;;;;;;16.58;13.07;;;;;;;19.55;78.35;101521.03;5042662;28;20047;-79
2022/08/22 07:50:59;;;;;;;23.00;13.00;;;;;;;19.72;76.70;101524.69;5031891;28;20020;-78
2022/08/22 07:53:25;;;;;;;19.85;12.48;;;;;;;20.29;74.52;101516.97;5048413;28;20037;-78
2022/08/22 07:55:54;;;;;;;19.92;12.65;;;;;;;20.83;72.90;101522.91;5048111;28;20104;-77
2022/08/22 07:58:22;;;;;;;19.65;12.00;;;;;;;21.18;71.08;101522.59;5047280;28;20025;-77
2022/08/22 08:00:49;;;;;;;19.63;11.63;;;;;;;21.58;69.10;101513.75;5048076;28;20032;-77
2022/08/22 08:03:14;;;;;;;20.08;11.10;;;;;;;22.00;68.02;101517.19;5045797;28;20134;-76
2022/08/22 08:05:43;;;;;;;16.25;10.50;;;;;;;22.15;65.63;101510.16;5048215;28;20100;-77
2022/08/22 08:08:33;;;;;;;17.20;10.38;;;;;;;22.15;68.99;101511.00;5080011;28;20470;-77
2022/08/22 08:10:59;;;;;;;19.00;10.48;;;;;;;22.27;65.51;101508.78;5047197;28;20036;-77
2022/08/22 08:13:32;;;;;;;17.95;10.15;;;;;;;22.14;66.40;101508.50;5046041;28;20051;-77
2022/08/22 08:15:59;;;;;;;15.77;9.70;;;;;;;22.11;65.49;101511.53;5045256;28;20017;-76
2022/08/22 08:18:29;;;;;;;15.80;9.73;;;;;;;22.33;66.31;101502.72;5047103;28;20493;-76
2022/08/22 08:20:58;;;;;;;14.95;9.10;;;;;;;22.62;65.12;101502.06;5046104;28;20609;-77
2022/08/22 08:23:28;;;;;;;13.52;8.85;;;;;;;22.90;63.16;101498.94;5046751;28;20394;-77
2022/08/22 08:26:11;;;;;;;16.45;9.52;;;;;;;23.03;64.32;101497.31;5047877;28;20074;-77
2022/08/22 08:28:45;;;;;;;12.82;8.23;;;;;;;23.07;61.23;101493.25;5044242;28;20043;-76
2022/08/22 08:31:19;;;;;;;15.77;7.93;;;;;;;23.34;61.47;101485.66;5038745;28;20053;-76
2022/08/22 08:33:48;;;;;;;13.27;7.72;;;;;;;23.46;60.97;101486.88;5040142;28;20501;-77
2022/08/22 08:36:30;;;;;;;14.73;7.68;;;;;;;23.60;60.95;101491.47;5054614;28;20032;-77
2022/08/22 08:39:17;;;;;;;15.63;5.83;;;;;;;23.63;61.83;101490.31;5045795;28;20049;-77
2022/08/22 08:41:53;;;;;;;14.75;5.95;;;;;;;23.47;57.67;101491.25;5055643;28;20029;-76
2022/08/22 08:44:37;;;;;;;13.32;4.25;;;;;;;23.39;57.06;101494.00;5060846;28;20069;-76
2022/08/22 08:47:13;;;;;;;11.13;4.47;;;;;;;23.38;58.62;101490.50;5045171;28;20024;-76
2022/08/22 08:50:00;;;;;;;13.60;4.30;;;;;;;23.39;58.27;101497.53;5053026;28;20492;-76
2022/08/22 08:52:25;;;;;;;9.85;4.55;;;;;;;23.25;56.16;101492.13;5057200;28;20112;-77
2022/08/22 08:55:01;;;;;;;12.32;4.00;;;;;;;23.16;56.08;101487.81;5056792;28;20464;-76
2022/08/22 08:58:04;;;;;;;9.32;3.72;;;;;;;23.13;57.70;101486.31;5043920;28;20043;-76
2022/08/22 09:00:48;;;;;;;9.13;3.45;;;;;;;22.96;57.83;101488.31;5035958;28;20037;-77
2022/08/22 09:03:22;;;;;;;9.57;3.92;;;;;;;22.78;57.27;101485.03;5051423;28;20017;-77
2022/08/22 09:06:15;;;;;;;12.55;3.58;;;;;;;22.87;57.41;101488.56;5051437;28;20029;-77
2022/08/22 09:09:06;;;;;;;9.27;3.90;;;;;;;22.85;58.12;101483.38;5051815;28;20444;-77
2022/08/22 09:11:56;;;;;;;10.27;3.33;;;;;;;22.84;57.55;101480.84;5050309;28;20043;-77
2022/08/22 09:14:41;;;;;;;11.25;4.22;;;;;;;22.74;58.86;101483.72;5050885;28;20104;-77
2022/08/22 09:17:22;;;;;;;11.50;3.53;;;;;;;22.78;56.83;101474.28;5050995;28;20021;-79
2022/08/22 09:20:06;;;;;;;11.50;4.25;;;;;;;22.77;56.80;101478.81;5049636;28;20504;-77
2022/08/22 09:22:44;;;;;;;12.65;4.70;;;;;;;22.75;56.88;101474.66;5048296;28;20028;-77
2022/08/22 09:25:24;;;;;;;10.82;4.50;;;;;;;22.69;56.64;101483.41;5046121;28;20017;-76
2022/08/22 09:28:15;;;;;;;11.05;3.88;;;;;;;22.86;58.38;101481.50;5036907;28;20028;-77
2022/08/22 09:31:08;;;;;;;13.05;3.90;;;;;;;22.84;56.76;101476.31;5037772;28;20032;-77
2022/08/22 09:33:52;;;;;;;14.23;3.30;;;;;;;22.87;55.66;101478.66;5031816;28;20542;-77
2022/08/22 09:36:29;;;;;;;10.40;3.53;;;;;;;22.78;53.21;101474.28;5036222;28;20021;-76
2022/08/22 09:39:03;;;;;;;9.20;3.20;;;;;;;22.80;52.93;101483.88;5041980;28;20078;-77
2022/08/22 09:41:38;;;;;;;8.02;3.33;;;;;;;22.90;54.30;101480.16;5031568;28;20044;-78
2022/08/22 09:44:25;;;;;;;9.77;3.90;;;;;;;22.92;55.14;101483.47;5041472;28;20108;-77
2022/08/22 09:47:21;;;;;;;7.97;4.05;;;;;;;22.99;55.01;101482.59;5044944;28;20025;-78
2022/08/22 09:50:06;;;;;;;11.75;4.63;;;;;;;23.05;55.57;101476.50;5032484;28;20025;-75
2022/08/22 09:53:09;;;;;;;13.70;3.78;;;;;;;23.18;54.94;101478.56;5032330;28;20024;-77
2022/08/22 09:55:53;;;;;;;12.98;4.32;;;;;;;23.42;55.10;101477.53;5049552;28;20108;-76
2022/08/22 09:58:42;;;;;;;10.07;3.60;;;;;;;23.70;54.06;101469.75;5035142;28;20032;-77
2022/08/22 10:01:26;;;;;;;10.02;3.47;;;;;;;23.79;53.15;101468.63;5034712;28;20069;-77
2022/08/22 10:04:26;;;;;;;9.63;3.33;;;;;;;23.90;51.19;101462.78;5030856;28;20052;-77
2022/08/22 10:07:13;;;;;;;8.27;3.47;;;;;;;23.96;51.29;101471.94;5045856;28;20529;-76
2022/08/22 10:09:47;;;;;;;9.20;3.45;;;;;;;23.96;49.04;101455.81;5050054;28;20063;-77
2022/08/22 10:12:19;;;;;;;7.57;2.78;;;;;;;24.04;48.78;101461.13;5048287;28;20406;-77
2022/08/22 10:14:57;;;;;;;10.80;3.47;;;;;;;24.02;48.64;101447.03;5048985;28;20064;-77
2022/08/22 10:17:36;;;;;;;11.45;3.58;;;;;;;24.20;50.15;101449.31;5045198;28;20053;-77
2022/08/22 10:20:19;;;;;;;8.57;3.35;;;;;;;24.37;50.26;101450.78;5046444;28;20110;-77
2022/08/22 10:23:03;;;;;;;9.98;3.08;;;;;;;24.76;48.56;101454.94;5048199;28;20021;-77
2022/08/22 10:25:39;;;;;;;8.63;3.03;;;;;;;24.88;46.39;101454.25;5049191;28;20021;-76
2022/08/22 10:28:43;;;;;;;8.98;2.80;;;;;;;25.08;47.40;101446.38;5047898;28;20144;-76
2022/08/22 10:31:32;;;;;;;10.80;3.25;;;;;;;25.23;46.78;101439.06;5047519;28;20017;-78
2022/08/22 10:34:00;;;;;;;8.68;3.03;;;;;;;25.23;44.01;101435.53;5050165;28;20036;-78
2022/08/22 10:36:37;;;;;;;9.18;3.35;;;;;;;25.32;45.63;101439.75;5046961;28;20055;-77
2022/08/22 10:39:07;;;;;;;10.80;3.17;;;;;;;25.55;45.32;101444.88;5049072;28;20024;-78
2022/08/22 10:41:57;;;;;;;8.38;3.13;;;;;;;25.56;45.57;101433.91;5039081;28;20028;-78
2022/08/22 10:44:48;;;;;;;7.45;3.13;;;;;;;25.62;45.35;101426.91;5069719;28;20490;-78
2022/08/22 10:47:22;;;;;;;8.68;3.25;;;;;;;25.72;44.00;101429.28;5020010;28;20495;-78
2022/08/22 10:49:52;;;;;;;10.18;2.97;;;;;;;25.42;43.55;101424.06;5039733;28;20056;-78
2022/08/22 10:52:41;;;;;;;14.50;3.25;;;;;;;25.51;45.68;101422.03;5050122;28;20450;-78
2022/08/22 10:55:16;;;;;;;9.43;2.78;;;;;;;25.53;44.83;101420.81;5049810;28;20021;-78
2022/08/22 10:58:04;;;;;;;8.57;2.30;;;;;;;25.59;43.91;101419.19;5050029;28;20025;-78
2022/08/22 11:00:45;;;;;;;7.72;2.30;;;;;;;25.61;43.57;101415.25;5036480;28;20403;-78
2022/08/22 11:03:27;;;;;;;8.40;2.55;;;;;;;25.58;44.29;101415.66;5037376;28;20029;-78
2022/08/22 11:06:04;;;;;;;11.50;3.05;;;;;;;25.50;44.25;101415.00;5046420;28;20036;-78
2022/08/22 11:08:33;;;;;;;10.23;2.88;;;;;;;25.50;43.50;101418.53;5027661;28;20028;-77
2022/08/22 11:11:07;;;;;;;11.07;2.90;;;;;;;25.40;42.49;101420.75;5028855;28;20051;-77
2022/08/22 11:13:38;;;;;;;11.90;3.25;;;;;;;25.39;44.66;101424.47;5038417;28;20032;-77
2022/08/22 11:16:42;;;;;;;9.75;2.88;;;;;;;25.52;45.22;101412.94;5046324;28;20036;-77
2022/08/22 11:19:26;;;;;;;10.05;2.80;;;;;;;25.39;43.59;101411.00;5029077;28;20435;-75
2022/08/22 11:22:23;;;;;;;8.23;2.90;;;;;;;25.56;45.98;101415.03;5043773;28;20033;-77
2022/08/22 11:25:15;;;;;;;9.40;3.50;;;;;;;25.56;45.75;101412.34;5039855;28;20024;-77
2022/08/22 11:28:08;;;;;;;9.50;3.00;;;;;;;25.48;45.83;101412.50;5042415;28;20025;-77
2022/08/22 11:31:02;;;;;;;9.85;3.20;;;;;;;25.30;45.11;101420.25;5045778;28;20100;-77
2022/08/22 11:33:39;;;;;;;7.07;2.22;;;;;;;25.28;45.07;101416.94;5042269;28;20104;-78
2022/08/22 11:36:52;;;;;;;9.82;2.85;;;;;;;25.39;47.46;101413.69;5037404;28;20482;-77
2022/08/22 11:39:40;;;;;;;7.53;2.50;;;;;;;25.43;44.19;101408.72;5022673;28;20033;-78
2022/08/22 11:42:12;;;;;;;8.65;2.72;;;;;;;25.47;44.33;101402.75;4989490;28;20034;-77
2022/08/22 11:44:45;;;;;;;8.27;3.00;;;;;;;25.44;44.48;101402.31;5023631;28;20071;-77
2022/08/22 11:47:14;;;;;;;10.38;3.20;;;;;;;25.40;45.25;101399.19;5043878;28;20029;-77
2022/08/22 11:49:58;;;;;;;8.60;2.85;;;;;;;25.49;45.09;101398.00;5049768;28;20020;-78
2022/08/22 11:52:49;;;;;;;8.15;2.65;;;;;;;25.47;46.87;101391.13;5037084;28;20029;-77
2022/08/22 11:55:33;;;;;;;9.25;2.95;;;;;;;25.55;45.17;101389.09;5048475;28;20017;-77
2022/08/22 11:58:05;;;;;;;8.25;2.92;;;;;;;25.34;44.82;101394.59;5049204;28;20090;-77
2022/08/22 12:00:49;;;;;;;7.35;2.63;;;;;;;25.35;43.88;101390.03;5049656;28;20021;-77
2022/08/22 12:03:31;;;;;;;10.07;3.10;;;;;;;25.28;45.35;101390.00;5048344;28;20047;-76
2022/08/22 12:06:51;;;;;;;9.52;2.83;;;;;;;25.32;45.64;101393.94;5033096;28;20074;-77
2022/08/22 12:09:25;;;;;;;12.75;3.17;;;;;;;25.33;45.84;101397.47;5009815;28;20029;-77
2022/08/22 12:11:59;;;;;;;8.05;2.80;;;;;;;25.35;45.19;101395.41;5046232;28;20397;-77
2022/08/22 12:14:44;;;;;;;7.53;2.97;;;;;;;25.10;44.00;101403.09;5048069;28;20032;-77
2022/08/22 12:17:31;;;;;;;9.68;2.88;;;;;;;25.01;44.27;101396.19;5045422;28;20553;-77
2022/08/22 12:20:08;;;;;;;11.32;3.00;;;;;;;25.02;45.38;101396.00;5047036;28;20052;-77